Time;durP1;ratioP1;P1;durP2;ratioP2;P2;SDS_P1;SDS_P2;PMS_P1;PMS_P2;Temp;Humidity;BMP_temperature;BMP_pressure;BME280_temperature;BME280_humidity;BME280_pressure;Samples;Min_cycle;Max_cycle;Signal;HPM_P1;HPM_P2
2022/08/30 00:01:05;;;;;;;4.55;3.42;;;;;;;;;;10101191;28;20055;-65
2022/08/30 00:06:02;;;;;;;9.27;3.92;;;;;;;;;;10111363;28;20631;-66
2022/08/30 00:10:59;;;;;;;6.03;3.13;;;;;;;;;;10099957;28;20133;-64
2022/08/30 00:15:56;;;;;;;4.35;3.25;;;;;;;;;;10100270;28;20501;-66
2022/08/30 00:20:53;;;;;;;7.43;4.85;;;;;;;;;;10110563;28;20081;-65
2022/08/30 00:25:51;;;;;;;4.68;3.30;;;;;;;;;;10105007;28;20147;-65
2022/08/30 00:30:49;;;;;;;5.95;3.95;;;;;;;;;;10108715;28;20133;-65
2022/08/30 00:35:45;;;;;;;4.20;2.95;;;;;;;;;;10102932;28;20051;-65
2022/08/30 00:40:43;;;;;;;3.40;2.90;;;;;;;;;;10109372;28;20363;-64
2022/08/30 00:45:39;;;;;;;4.53;3.30;;;;;;;;;;10101775;28;20051;-65
2022/08/30 00:50:45;;;;;;;3.33;2.88;;;;;;;;;;10101658;28;20146;-65
2022/08/30 00:55:42;;;;;;;4.00;3.08;;;;;;;;;;10091402;28;20071;-65
2022/08/30 01:00:39;;;;;;;4.32;3.30;;;;;;;;;;10101302;28;20521;-65
2022/08/30 01:05:37;;;;;;;4.35;3.40;;;;;;;;;;10101118;28;20101;-65
2022/08/30 01:10:35;;;;;;;3.80;2.95;;;;;;;;;;10103694;28;20081;-65
2022/08/30 01:15:32;;;;;;;4.68;3.13;;;;;;;;;;10099880;28;20043;-65
2022/08/30 01:20:38;;;;;;;4.07;3.20;;;;;;;;;;10096876;28;20504;-65
2022/08/30 01:25:35;;;;;;;4.88;3.47;;;;;;;;;;10099620;28;20046;-65
2022/08/30 01:30:32;;;;;;;3.55;3.10;;;;;;;;;;10104411;28;20514;-65
2022/08/30 01:35:33;;;;;;;4.68;3.03;;;;;;;;;;10099400;28;20609;-66
2022/08/30 01:40:29;;;;;;;4.32;3.20;;;;;;;;;;10105409;28;20074;-66
2022/08/30 01:45:26;;;;;;;7.97;3.35;;;;;;;;;;10096063;28;20468;-66
2022/08/30 01:50:22;;;;;;;5.93;3.30;;;;;;;;;;10105320;28;20482;-66
2022/08/30 01:55:18;;;;;;;3.55;3.00;;;;;;;;;;10101342;28;20050;-66
2022/08/30 02:00:16;;;;;;;4.40;3.10;;;;;;;;;;10106152;28;20047;-66
2022/08/30 02:05:12;;;;;;;5.43;3.40;;;;;;;;;;10105252;28;20084;-66
2022/08/30 02:10:09;;;;;;;4.38;3.47;;;;;;;;;;10105960;28;20082;-65
2022/08/30 02:15:05;;;;;;;4.65;3.58;;;;;;;;;;10099087;28;20078;-66
2022/08/30 02:20:02;;;;;;;3.88;3.08;;;;;;;;;;10095980;28;20575;-66
2022/08/30 02:24:59;;;;;;;3.50;3.10;;;;;;;;;;10099375;28;20086;-65
2022/08/30 02:29:56;;;;;;;3.88;3.20;;;;;;;;;;10101112;28;20134;-65
2022/08/30 02:34:53;;;;;;;4.22;3.28;;;;;;;;;;10104910;28;20608;-65
2022/08/30 02:39:49;;;;;;;4.15;3.05;;;;;;;;;;10106655;28;20497;-65
2022/08/30 02:44:46;;;;;;;6.13;2.90;;;;;;;;;;10113461;28;20161;-65
2022/08/30 02:49:42;;;;;;;3.47;2.80;;;;;;;;;;10110813;28;20593;-65
2022/08/30 02:54:38;;;;;;;4.65;3.55;;;;;;;;;;10111860;28;20114;-65
2022/08/30 02:59:40;;;;;;;4.10;2.90;;;;;;;;;;10114690;28;20043;-66
2022/08/30 03:04:38;;;;;;;4.27;2.80;;;;;;;;;;10107196;28;20071;-65
2022/08/30 03:09:34;;;;;;;3.50;2.97;;;;;;;;;;10123819;28;20141;-65
2022/08/30 03:14:31;;;;;;;4.20;3.10;;;;;;;;;;10103195;28;20068;-65
2022/08/30 03:19:27;;;;;;;4.22;2.97;;;;;;;;;;10098455;28;20045;-66
2022/08/30 03:24:23;;;;;;;4.68;2.50;;;;;;;;;;10098119;28;20047;-66
2022/08/30 03:29:20;;;;;;;4.95;2.20;;;;;;;;;;10090725;28;20078;-67
2022/08/30 03:34:16;;;;;;;6.13;3.20;;;;;;;;;;10080646;28;20051;-66
2022/08/30 03:39:15;;;;;;;3.40;2.90;;;;;;;;;;10095940;28;20047;-66
2022/08/30 03:44:12;;;;;;;6.50;2.40;;;;;;;;;;10111524;28;20058;-66
2022/08/30 03:49:08;;;;;;;4.72;2.22;;;;;;;;;;10103879;28;20196;-66
2022/08/30 03:54:04;;;;;;;3.60;2.25;;;;;;;;;;10097505;28;20149;-66
2022/08/30 03:59:01;;;;;;;4.00;2.50;;;;;;;;;;10098311;28;20110;-66
2022/08/30 04:03:57;;;;;;;3.55;2.17;;;;;;;;;;10084391;28;20075;-66
2022/08/30 04:08:54;;;;;;;5.88;2.78;;;;;;;;;;10099411;28;20138;-66
2022/08/30 04:13:50;;;;;;;3.70;2.38;;;;;;;;;;10095508;28;20678;-66
2022/08/30 04:18:47;;;;;;;4.28;2.40;;;;;;;;;;10084411;28;20047;-67
2022/08/30 04:23:43;;;;;;;31.60;29.70;;;;;;;;;;10104838;28;20077;-67
2022/08/30 04:28:40;;;;;;;135.38;128.32;;;;;;;;;;10100858;28;20047;-67
2022/08/30 04:33:36;;;;;;;135.70;128.50;;;;;;;;;;10096539;28;20167;-68
2022/08/30 04:38:34;;;;;;;113.30;107.25;;;;;;;;;;10096367;28;20051;-67
2022/08/30 04:43:30;;;;;;;82.80;78.18;;;;;;;;;;10101982;28;20075;-67
2022/08/30 04:48:27;;;;;;;69.20;65.40;;;;;;;;;;10086740;28;20082;-67
2022/08/30 04:53:23;;;;;;;53.30;50.30;;;;;;;;;;10079994;28;20058;-67
2022/08/30 04:58:19;;;;;;;96.10;91.05;;;;;;;;;;10077656;28;20059;-67
2022/08/30 05:03:16;;;;;;;38.63;36.25;;;;;;;;;;10083619;28;20138;-67
2022/08/30 05:08:14;;;;;;;58.33;55.08;;;;;;;;;;10079397;28;20101;-67
2022/08/30 05:13:11;;;;;;;64.30;60.80;;;;;;;;;;10071221;28;20077;-67
2022/08/30 05:18:08;;;;;;;63.30;59.70;;;;;;;;;;10087943;28;20571;-67
2022/08/30 05:23:09;;;;;;;64.15;60.30;;;;;;;;;;10097838;28;20039;-67
2022/08/30 05:28:05;;;;;;;71.22;67.22;;;;;;;;;;10094030;28;20047;-68
2022/08/30 05:33:02;;;;;;;65.88;61.88;;;;;;;;;;10108073;28;20535;-67
2022/08/30 05:37:58;;;;;;;72.45;68.28;;;;;;;;;;10096400;28;20483;-67
2022/08/30 05:42:54;;;;;;;66.85;63.13;;;;;;;;;;10106382;28;20050;-68
2022/08/30 05:47:51;;;;;;;67.47;63.58;;;;;;;;;;10098882;28;20097;-67
2022/08/30 05:52:47;;;;;;;65.22;61.33;;;;;;;;;;10102510;28;20125;-67
2022/08/30 05:57:43;;;;;;;59.80;55.90;;;;;;;;;;10104774;28;20435;-67
2022/08/30 06:02:40;;;;;;;63.70;60.10;;;;;;;;;;10098083;28;20043;-67
2022/08/30 06:07:37;;;;;;;63.38;59.42;;;;;;;;;;10094907;28;20055;-67
2022/08/30 06:12:33;;;;;;;60.20;56.08;;;;;;;;;;10094553;28;20089;-67
2022/08/30 06:17:29;;;;;;;60.45;57.00;;;;;;;;;;10102058;28;20082;-69
2022/08/30 06:22:25;;;;;;;63.20;59.40;;;;;;;;;;10089522;28;20133;-67
2022/08/30 06:27:22;;;;;;;58.83;55.30;;;;;;;;;;10100524;28;20564;-67
2022/08/30 06:32:18;;;;;;;47.15;44.38;;;;;;;;;;10105076;28;20397;-67
2022/08/30 06:37:14;;;;;;;45.72;43.20;;;;;;;;;;10096486;28;20121;-67
2022/08/30 06:42:30;;;;;;;16.40;15.23;;;;;;;;;;10097055;28;20054;-67
2022/08/30 06:47:27;;;;;;;20.00;18.20;;;;;;;;;;10088850;28;20141;-67
2022/08/30 06:52:24;;;;;;;18.73;17.55;;;;;;;;;;10106742;28;20864;-67
2022/08/30 06:57:20;;;;;;;19.08;17.88;;;;;;;;;;10105461;28;20050;-67
2022/08/30 07:02:17;;;;;;;17.65;16.55;;;;;;;;;;10103546;28;20514;-67
2022/08/30 07:07:13;;;;;;;17.23;16.13;;;;;;;;;;10094310;28;20055;-67
2022/08/30 07:12:10;;;;;;;16.10;15.20;;;;;;;;;;10107508;28;20054;-67
2022/08/30 07:18:49;;;;;;;16.88;15.80;;;;;;;;;;10100868;28;20050;-67
2022/08/30 07:22:31;;;;;;;18.73;17.48;;;;;;;;;;10103007;28;20051;-67
2022/08/30 07:27:27;;;;;;;18.88;17.42;;;;;;;;;;10093406;28;20149;-68
2022/08/30 07:32:24;;;;;;;18.50;17.40;;;;;;;;;;10112295;28;20074;-67
2022/08/30 07:37:20;;;;;;;18.55;17.42;;;;;;;;;;10108725;28;20093;-67
2022/08/30 07:42:17;;;;;;;18.23;17.13;;;;;;;;;;10107842;28;20494;-67
2022/08/30 07:47:13;;;;;;;18.35;17.15;;;;;;;;;;10104916;28;20090;-67
2022/08/30 07:52:09;;;;;;;35.72;33.65;;;;;;;;;;10100405;28;20753;-67
2022/08/30 07:57:06;;;;;;;40.22;37.72;;;;;;;;;;10104734;28;20047;-67
2022/08/30 08:02:02;;;;;;;35.22;33.20;;;;;;;;;;10106584;28;20126;-67
2022/08/30 08:06:59;;;;;;;26.98;25.38;;;;;;;;;;10109279;28;20055;-67
2022/08/30 08:11:55;;;;;;;25.08;23.58;;;;;;;;;;10095889;28;20488;-68
2022/08/30 08:16:51;;;;;;;25.50;23.80;;;;;;;;;;10106357;28;20146;-67
2022/08/30 08:21:48;;;;;;;22.95;21.55;;;;;;;;;;10104529;28;20398;-67
2022/08/30 08:27:04;;;;;;;25.17;23.50;;;;;;;;;;10110814;28;20596;-68
2022/08/30 08:32:01;;;;;;;20.77;19.35;;;;;;;;;;10107134;28;20043;-67
2022/08/30 08:36:57;;;;;;;22.73;21.23;;;;;;;;;;10107764;28;20047;-67
2022/08/30 08:42:12;;;;;;;20.83;19.52;;;;;;;;;;10100857;28;20113;-68
2022/08/30 08:47:31;;;;;;;17.27;16.17;;;;;;;;;;10102259;28;20153;-67
2022/08/30 08:57:44;;;;;;;18.08;16.92;;;;;;;;;;10093750;28;20869;-67
2022/08/30 09:02:42;;;;;;;17.05;16.05;;;;;;;;;;10108618;28;20109;-67
2022/08/30 09:07:44;;;;;;;17.05;15.95;;;;;;;;;;10106593;28;20158;-67
2022/08/30 09:12:40;;;;;;;17.13;16.00;;;;;;;;;;10098586;28;20057;-67
2022/08/30 09:17:48;;;;;;;17.15;16.15;;;;;;;;;;10093478;28;20420;-67
2022/08/30 09:22:45;;;;;;;16.10;15.00;;;;;;;;;;10097463;28;20461;-67
2022/08/30 09:27:43;;;;;;;15.27;14.38;;;;;;;;;;10101640;28;20047;-67
2022/08/30 09:32:41;;;;;;;14.93;14.02;;;;;;;;;;10095796;28;20047;-67
2022/08/30 09:37:39;;;;;;;14.13;13.02;;;;;;;;;;10100624;28;20090;-67
2022/08/30 09:42:37;;;;;;;14.13;13.23;;;;;;;;;;10094447;28;20043;-67
2022/08/30 09:47:34;;;;;;;13.70;12.80;;;;;;;;;;10096414;28;20078;-67
2022/08/30 09:52:30;;;;;;;13.07;12.25;;;;;;;;;;10107463;28;20156;-67
2022/08/30 09:57:39;;;;;;;12.82;12.02;;;;;;;;;;10097178;28;20070;-67
2022/08/30 10:02:41;;;;;;;12.52;11.73;;;;;;;;;;10097276;28;20086;-67
2022/08/30 10:07:57;;;;;;;12.10;11.32;;;;;;;;;;10103798;28;20454;-67
2022/08/30 10:13:29;;;;;;;11.77;11.00;;;;;;;;;;10104647;28;20441;-67
2022/08/30 10:18:31;;;;;;;11.65;10.90;;;;;;;;;;10100255;28;20070;-67
2022/08/30 10:23:30;;;;;;;10.98;10.18;;;;;;;;;;10103667;28;20081;-67
2022/08/30 10:28:35;;;;;;;10.27;9.57;;;;;;;;;;10102156;28;20521;-67
2022/08/30 10:33:34;;;;;;;9.85;9.25;;;;;;;;;;10100287;28;20070;-67
2022/08/30 10:38:35;;;;;;;9.57;8.85;;;;;;;;;;10094847;28;20452;-67
2022/08/30 10:43:40;;;;;;;10.02;9.32;;;;;;;;;;10100338;28;20051;-68
2022/08/30 10:48:39;;;;;;;9.90;9.30;;;;;;;;;;10090481;28;20082;-67
2022/08/30 10:53:44;;;;;;;10.70;9.77;;;;;;;;;;10086678;28;20134;-68
2022/08/30 10:58:41;;;;;;;9.53;8.83;;;;;;;;;;10105824;28;20536;-68
2022/08/30 11:03:48;;;;;;;9.63;9.02;;;;;;;;;;10106565;28;20055;-67
2022/08/30 11:08:44;;;;;;;9.73;9.10;;;;;;;;;;10107558;28;20073;-67
2022/08/30 11:13:42;;;;;;;10.30;9.55;;;;;;;;;;10108511;28;20549;-67
2022/08/30 11:18:46;;;;;;;10.68;9.98;;;;;;;;;;10109854;28;20058;-67
2022/08/30 11:23:59;;;;;;;11.50;10.60;;;;;;;;;;10111092;28;20038;-67
2022/08/30 11:28:55;;;;;;;10.95;10.15;;;;;;;;;;10108316;28;20522;-67
2022/08/30 11:33:54;;;;;;;10.85;10.15;;;;;;;;;;10107814;28;20449;-67
2022/08/30 11:38:50;;;;;;;10.98;10.23;;;;;;;;;;10103422;28;20039;-68
2022/08/30 11:43:48;;;;;;;10.18;9.38;;;;;;;;;;10102006;28;20047;-67
2022/08/30 11:48:50;;;;;;;11.43;10.52;;;;;;;;;;10107134;28;20046;-68
2022/08/30 11:53:57;;;;;;;11.15;10.35;;;;;;;;;;10104998;28;20073;-68
2022/08/30 11:58:53;;;;;;;10.65;9.95;;;;;;;;;;10111402;28;20689;-67
2022/08/30 12:04:08;;;;;;;10.70;9.98;;;;;;;;;;10101668;28;20070;-67
2022/08/30 12:09:31;;;;;;;11.02;10.23;;;;;;;;;;10103214;28;20094;-67
2022/08/30 12:14:37;;;;;;;10.52;9.73;;;;;;;;;;10107768;28;20082;-67
2022/08/30 12:19:36;;;;;;;11.00;10.05;;;;;;;;;;10098259;28;20155;-68
2022/08/30 12:24:39;;;;;;;10.80;10.10;;;;;;;;;;10108737;28;20049;-68
2022/08/30 12:29:36;;;;;;;10.40;9.80;;;;;;;;;;10102546;28;20134;-67
2022/08/30 12:34:50;;;;;;;9.98;9.27;;;;;;;;;;10108380;28;20142;-68
2022/08/30 12:39:58;;;;;;;9.43;8.75;;;;;;;;;;9977579;29;20137;-68
2022/08/30 12:44:57;;;;;;;10.60;9.90;;;;;;;;;;9904070;29;20140;-67
2022/08/30 12:49:54;;;;;;;10.93;10.23;;;;;;;;;;9915866;29;20072;-68
2022/08/30 12:54:52;;;;;;;10.27;9.57;;;;;;;;;;9925455;29;20525;-67
2022/08/30 12:59:50;;;;;;;10.32;9.63;;;;;;;;;;10032517;28;20146;-68
2022/08/30 13:04:55;;;;;;;10.65;9.95;;;;;;;;;;10102789;28;20738;-67
2022/08/30 13:09:59;;;;;;;9.85;9.15;;;;;;;;;;10106154;28;20066;-67
2022/08/30 13:15:15;;;;;;;10.35;9.75;;;;;;;;;;10095741;28;20074;-68
2022/08/30 13:20:11;;;;;;;9.88;9.27;;;;;;;;;;10110147;28;20129;-68
2022/08/30 13:25:11;;;;;;;10.00;9.38;;;;;;;;;;10103142;28;20050;-67
2022/08/30 13:30:09;;;;;;;10.10;9.50;;;;;;;;;;10097417;28;20074;-67
2022/08/30 13:35:10;;;;;;;9.35;8.75;;;;;;;;;;10095219;28;20141;-68
2022/08/30 13:40:07;;;;;;;20.92;9.43;;;;;;;;;;10088137;28;20049;-68
2022/08/30 13:45:04;;;;;;;10.65;9.82;;;;;;;;;;10103520;28;20123;-68
2022/08/30 13:50:21;;;;;;;10.18;9.50;;;;;;;;;;10107548;28;20051;-67
2022/08/30 13:55:17;;;;;;;9.70;8.90;;;;;;;;;;10105318;28;20465;-68
2022/08/30 14:00:17;;;;;;;9.38;8.77;;;;;;;;;;10107537;28;20050;-67
2022/08/30 14:05:14;;;;;;;9.27;8.57;;;;;;;;;;10099589;28;20052;-68
2022/08/30 14:10:31;;;;;;;9.70;9.07;;;;;;;;;;10094712;28;20122;-67
2022/08/30 14:15:27;;;;;;;9.32;8.73;;;;;;;;;;10099585;28;20050;-67
2022/08/30 14:20:24;;;;;;;9.80;9.00;;;;;;;;;;10107040;28;20129;-67
2022/08/30 14:25:22;;;;;;;9.70;8.73;;;;;;;;;;10095148;28;20051;-67
2022/08/30 14:30:18;;;;;;;9.40;8.70;;;;;;;;;;10106553;28;20142;-67
2022/08/30 14:35:18;;;;;;;10.05;9.35;;;;;;;;;;10103811;28;20055;-67
2022/08/30 14:40:15;;;;;;;9.70;9.10;;;;;;;;;;10105605;28;20150;-67
2022/08/30 14:45:12;;;;;;;9.75;9.13;;;;;;;;;;10108921;28;20485;-69
2022/08/30 14:50:08;;;;;;;9.80;9.00;;;;;;;;;;10111756;28;20058;-69
2022/08/30 14:55:06;;;;;;;9.00;8.40;;;;;;;;;;10110820;28;20050;-69
2022/08/30 15:00:05;;;;;;;21.83;9.18;;;;;;;;;;10106748;28;20050;-70
2022/08/30 15:05:01;;;;;;;9.43;8.63;;;;;;;;;;10100191;28;20082;-68
2022/08/30 15:09:58;;;;;;;9.48;8.68;;;;;;;;;;10095537;28;20472;-69
2022/08/30 15:14:54;;;;;;;8.80;8.05;;;;;;;;;;10090993;28;21018;-69
2022/08/30 15:19:51;;;;;;;8.95;8.25;;;;;;;;;;10088310;28;20051;-69
2022/08/30 15:24:47;;;;;;;8.73;8.13;;;;;;;;;;10094675;28;20070;-68
2022/08/30 15:29:45;;;;;;;9.73;8.88;;;;;;;;;;10087929;28;20042;-68
2022/08/30 15:34:42;;;;;;;9.82;8.98;;;;;;;;;;10090476;28;20420;-68
2022/08/30 15:39:43;;;;;;;8.70;8.15;;;;;;;;;;10112206;28;20129;-69
2022/08/30 15:44:39;;;;;;;9.40;8.80;;;;;;;;;;10096859;28;20070;-68
2022/08/30 15:49:35;;;;;;;9.30;8.48;;;;;;;;;;10102903;28;20062;-68
2022/08/30 15:54:32;;;;;;;9.02;8.43;;;;;;;;;;10094811;28;20069;-69
2022/08/30 15:59:29;;;;;;;8.48;7.85;;;;;;;;;;10091928;28;20139;-68
2022/08/30 16:04:26;;;;;;;8.50;7.78;;;;;;;;;;10088534;28;20040;-66
2022/08/30 16:09:22;;;;;;;8.70;8.00;;;;;;;;;;10082865;28;20750;-68
2022/08/30 16:14:18;;;;;;;7.75;7.25;;;;;;;;;;10087539;28;20138;-68
2022/08/30 16:19:14;;;;;;;8.80;7.97;;;;;;;;;;10089608;28;20121;-68
2022/08/30 16:24:12;;;;;;;7.95;7.35;;;;;;;;;;10085611;28;20100;-68
2022/08/30 16:29:11;;;;;;;8.30;7.60;;;;;;;;;;10088748;28;20421;-69
2022/08/30 16:34:07;;;;;;;8.18;7.68;;;;;;;;;;10085313;28;20159;-68
2022/08/30 16:39:05;;;;;;;7.40;6.90;;;;;;;;;;10086822;28;20049;-69
2022/08/30 16:44:04;;;;;;;7.07;6.57;;;;;;;;;;10082230;28;20712;-67
2022/08/30 16:49:02;;;;;;;7.78;7.28;;;;;;;;;;10080135;28;20067;-69
2022/08/30 16:53:59;;;;;;;7.47;6.82;;;;;;;;;;10091877;28;20061;-69
2022/08/30 16:58:57;;;;;;;7.80;7.20;;;;;;;;;;10099297;28;20101;-69
2022/08/30 17:03:58;;;;;;;8.10;7.40;;;;;;;;;;10106599;28;20114;-69
2022/08/30 17:08:54;;;;;;;7.75;7.15;;;;;;;;;;10105324;28;20078;-69
2022/08/30 17:13:52;;;;;;;7.38;6.88;;;;;;;;;;10103438;28;20042;-69
2022/08/30 17:18:50;;;;;;;7.60;7.10;;;;;;;;;;10096934;28;20046;-69
2022/08/30 17:23:53;;;;;;;7.28;6.63;;;;;;;;;;10134017;28;20649;-69
2022/08/30 17:28:56;;;;;;;7.38;6.82;;;;;;;;;;10125937;28;20047;-69
2022/08/30 17:33:53;;;;;;;7.78;7.13;;;;;;;;;;10111632;28;20052;-69
2022/08/30 17:38:56;;;;;;;7.75;7.25;;;;;;;;;;10106253;28;20524;-68
2022/08/30 17:43:52;;;;;;;7.20;6.70;;;;;;;;;;10118484;28;20043;-69
2022/08/30 17:48:48;;;;;;;7.60;7.10;;;;;;;;;;10094238;28;20134;-68
2022/08/30 17:53:57;;;;;;;7.38;6.88;;;;;;;;;;10110541;28;20404;-68
2022/08/30 17:58:53;;;;;;;7.95;7.35;;;;;;;;;;10113537;28;20077;-68
2022/08/30 18:03:51;;;;;;;6.70;6.20;;;;;;;;;;10089733;28;20139;-68
2022/08/30 18:08:57;;;;;;;7.03;6.43;;;;;;;;;;10058227;28;20058;-69
2022/08/30 18:13:53;;;;;;;7.00;6.50;;;;;;;;;;10057995;28;20747;-69
2022/08/30 18:18:50;;;;;;;8.05;7.45;;;;;;;;;;10057686;28;20055;-68
2022/08/30 18:23:52;;;;;;;7.57;6.97;;;;;;;;;;10046023;28;20178;-69
2022/08/30 18:28:49;;;;;;;8.80;8.15;;;;;;;;;;10058151;28;20571;-68
2022/08/30 18:33:45;;;;;;;7.40;6.90;;;;;;;;;;10044713;28;20052;-69
2022/08/30 18:38:42;;;;;;;8.02;7.43;;;;;;;;;;10062262;28;20074;-68
2022/08/30 18:43:40;;;;;;;7.47;6.97;;;;;;;;;;10073203;28;20070;-68
2022/08/30 18:48:38;;;;;;;7.55;7.05;;;;;;;;;;10067923;28;20130;-69
2022/08/30 18:53:35;;;;;;;7.60;7.10;;;;;;;;;;10066977;28;20093;-69
2022/08/30 18:58:31;;;;;;;7.50;7.00;;;;;;;;;;10068601;28;20484;-68
2022/08/30 19:03:28;;;;;;;7.35;6.85;;;;;;;;;;10071593;28;20047;-69
2022/08/30 19:08:28;;;;;;;7.43;6.82;;;;;;;;;;10059677;28;20060;-69
2022/08/30 19:13:25;;;;;;;6.97;6.47;;;;;;;;;;10062423;28;20043;-69
2022/08/30 19:18:22;;;;;;;7.40;6.90;;;;;;;;;;10064293;28;20412;-68
2022/08/30 19:23:19;;;;;;;7.55;7.05;;;;;;;;;;10064481;28;20531;-69
2022/08/30 19:28:19;;;;;;;7.32;6.65;;;;;;;;;;10066987;28;20051;-69
2022/08/30 19:33:15;;;;;;;6.90;6.40;;;;;;;;;;10061247;28;20043;-69
2022/08/30 19:38:12;;;;;;;7.68;6.97;;;;;;;;;;10057025;28;20075;-68
2022/08/30 19:43:11;;;;;;;6.80;6.20;;;;;;;;;;10058068;28;20159;-69
2022/08/30 19:48:07;;;;;;;6.85;6.35;;;;;;;;;;10059572;28;20047;-69
2022/08/30 19:53:07;;;;;;;6.50;6.00;;;;;;;;;;10060380;28;20058;-69
2022/08/30 19:58:05;;;;;;;6.95;6.45;;;;;;;;;;10048105;28;20047;-68
2022/08/30 20:03:03;;;;;;;7.10;6.55;;;;;;;;;;10040075;28;20085;-67
2022/08/30 20:08:00;;;;;;;7.80;7.20;;;;;;;;;;10044922;28;20048;-68
2022/08/30 20:12:56;;;;;;;7.22;6.70;;;;;;;;;;10067952;28;20109;-68
2022/08/30 20:17:52;;;;;;;6.45;6.05;;;;;;;;;;10069147;28;20063;-68
2022/08/30 20:23:01;;;;;;;6.50;6.03;;;;;;;;;;10057978;28;20109;-67
2022/08/30 20:28:00;;;;;;;6.50;6.00;;;;;;;;;;10081660;28;20039;-67
2022/08/30 20:32:56;;;;;;;6.40;5.90;;;;;;;;;;10053372;28;20157;-67
2022/08/30 20:37:52;;;;;;;6.72;6.13;;;;;;;;;;10055869;28;20081;-67
2022/08/30 20:42:50;;;;;;;6.97;6.40;;;;;;;;;;10067998;28;20137;-67
2022/08/30 20:47:47;;;;;;;6.70;6.20;;;;;;;;;;10057732;28;20043;-68
2022/08/30 20:52:44;;;;;;;6.70;6.20;;;;;;;;;;10069575;28;20130;-67
2022/08/30 20:57:40;;;;;;;7.28;6.68;;;;;;;;;;10071777;28;20078;-67
2022/08/30 21:02:38;;;;;;;6.53;6.10;;;;;;;;;;10064375;28;20130;-67
2022/08/30 21:07:43;;;;;;;7.40;6.70;;;;;;;;;;10079320;28;20501;-67
2022/08/30 21:12:39;;;;;;;7.13;6.63;;;;;;;;;;10069942;28;20083;-68
2022/08/30 21:17:35;;;;;;;6.88;6.28;;;;;;;;;;10053305;28;20109;-68
2022/08/30 21:22:37;;;;;;;7.53;6.93;;;;;;;;;;10020024;28;20071;-68
2022/08/30 21:27:33;;;;;;;7.55;6.70;;;;;;;;;;10023514;28;20044;-68
2022/08/30 21:32:29;;;;;;;7.15;6.55;;;;;;;;;;10034372;28;20430;-67
2022/08/30 21:37:26;;;;;;;8.02;6.88;;;;;;;;;;10047665;28;20464;-67
2022/08/30 21:42:22;;;;;;;7.43;6.93;;;;;;;;;;10050509;28;20137;-67
2022/08/30 21:47:18;;;;;;;7.00;6.50;;;;;;;;;;10049692;28;20573;-67
2022/08/30 21:52:19;;;;;;;7.47;6.88;;;;;;;;;;10034857;28;20137;-67
2022/08/30 21:57:15;;;;;;;7.53;6.93;;;;;;;;;;10025349;28;20163;-67
2022/08/30 22:02:12;;;;;;;7.45;6.80;;;;;;;;;;10029260;28;20107;-67
2022/08/30 22:07:08;;;;;;;6.97;6.47;;;;;;;;;;10033531;28;20244;-67
2022/08/30 22:12:05;;;;;;;7.43;6.93;;;;;;;;;;10045838;28;20447;-67
2022/08/30 22:17:03;;;;;;;7.63;7.13;;;;;;;;;;10042519;28;20090;-68
2022/08/30 22:22:00;;;;;;;8.27;6.68;;;;;;;;;;10073433;28;20161;-68
2022/08/30 22:26:57;;;;;;;7.57;7.03;;;;;;;;;;10061705;28;20063;-67
2022/08/30 22:31:54;;;;;;;7.88;7.18;;;;;;;;;;10053357;28;20051;-67
2022/08/30 22:36:50;;;;;;;7.57;6.97;;;;;;;;;;10068489;28;20134;-67
2022/08/30 22:41:49;;;;;;;7.85;7.22;;;;;;;;;;10061857;28;20051;-67
2022/08/30 22:46:45;;;;;;;7.95;7.35;;;;;;;;;;10092166;28;20074;-67
2022/08/30 22:51:42;;;;;;;9.00;8.30;;;;;;;;;;10063384;28;20182;-67
2022/08/30 22:56:39;;;;;;;9.52;8.82;;;;;;;;;;10046406;28;20082;-67
2022/08/30 23:01:37;;;;;;;9.30;8.60;;;;;;;;;;10033887;28;20063;-67
2022/08/30 23:06:33;;;;;;;9.25;8.55;;;;;;;;;;10040005;28;20075;-67
2022/08/30 23:11:30;;;;;;;9.20;8.60;;;;;;;;;;10049156;28;20107;-67
2022/08/30 23:16:28;;;;;;;10.90;9.10;;;;;;;;;;10043161;28;20152;-68
2022/08/30 23:21:26;;;;;;;10.02;9.20;;;;;;;;;;10064473;28;20089;-67
